sensor_id;sensor_type;location;lat;lon;timestamp;P1;durP1;ratioP1;P2;durP2;ratioP2
21181;SDS011;10749;46.296;7.524;2023-06-04T00:00:03;3.53;;;2.90;;
21181;SDS011;10749;46.296;7.524;2023-06-04T00:02:29;3.45;;;2.90;;
21181;SDS011;10749;46.296;7.524;2023-06-04T00:04:54;4.25;;;2.90;;
21181;SDS011;10749;46.296;7.524;2023-06-04T00:07:20;4.30;;;2.95;;
21181;SDS011;10749;46.296;7.524;2023-06-04T00:09:45;3.22;;;2.60;;
21181;SDS011;10749;46.296;7.524;2023-06-04T00:12:12;4.80;;;2.78;;
21181;SDS011;10749;46.296;7.524;2023-06-04T00:14:37;4.10;;;2.97;;
21181;SDS011;10749;46.296;7.524;2023-06-04T00:17:03;5.32;;;2.85;;
21181;SDS011;10749;46.296;7.524;2023-06-04T00:19:28;3.78;;;2.70;;
21181;SDS011;10749;46.296;7.524;2023-06-04T00:21:54;3.10;;;2.58;;
21181;SDS011;10749;46.296;7.524;2023-06-04T00:24:19;3.05;;;2.63;;
21181;SDS011;10749;46.296;7.524;2023-06-04T00:26:45;5.35;;;2.55;;
21181;SDS011;10749;46.296;7.524;2023-06-04T00:29:10;3.90;;;2.42;;
21181;SDS011;10749;46.296;7.524;2023-06-04T00:31:35;3.10;;;2.65;;
21181;SDS011;10749;46.296;7.524;2023-06-04T00:34:02;4.93;;;2.65;;
21181;SDS011;10749;46.296;7.524;2023-06-04T00:36:28;3.22;;;2.88;;
21181;SDS011;10749;46.296;7.524;2023-06-04T00:38:54;3.60;;;2.85;;
21181;SDS011;10749;46.296;7.524;2023-06-04T00:41:19;3.25;;;2.75;;
21181;SDS011;10749;46.296;7.524;2023-06-04T00:43:45;5.30;;;3.10;;
21181;SDS011;10749;46.296;7.524;2023-06-04T00:46:11;3.70;;;2.83;;
21181;SDS011;10749;46.296;7.524;2023-06-04T00:48:42;3.25;;;2.40;;
21181;SDS011;10749;46.296;7.524;2023-06-04T00:51:08;3.97;;;2.67;;
21181;SDS011;10749;46.296;7.524;2023-06-04T00:53:34;4.32;;;3.00;;
21181;SDS011;10749;46.296;7.524;2023-06-04T00:55:59;7.40;;;2.90;;
21181;SDS011;10749;46.296;7.524;2023-06-04T00:58:24;5.20;;;3.30;;
21181;SDS011;10749;46.296;7.524;2023-06-04T01:00:51;5.15;;;3.10;;
21181;SDS011;10749;46.296;7.524;2023-06-04T01:03:21;4.28;;;2.70;;
21181;SDS011;10749;46.296;7.524;2023-06-04T01:05:51;4.50;;;3.10;;
21181;SDS011;10749;46.296;7.524;2023-06-04T01:08:25;4.22;;;3.05;;
21181;SDS011;10749;46.296;7.524;2023-06-04T01:10:54;5.00;;;3.05;;
21181;SDS011;10749;46.296;7.524;2023-06-04T01:13:20;4.03;;;3.10;;
21181;SDS011;10749;46.296;7.524;2023-06-04T01:15:46;5.47;;;2.95;;
21181;SDS011;10749;46.296;7.524;2023-06-04T01:18:11;3.53;;;2.78;;
21181;SDS011;10749;46.296;7.524;2023-06-04T01:20:52;3.88;;;3.20;;
21181;SDS011;10749;46.296;7.524;2023-06-04T01:23:28;3.97;;;3.05;;
21181;SDS011;10749;46.296;7.524;2023-06-04T01:26:00;4.07;;;2.90;;
21181;SDS011;10749;46.296;7.524;2023-06-04T01:28:30;5.47;;;3.40;;
21181;SDS011;10749;46.296;7.524;2023-06-04T01:30:56;3.58;;;2.88;;
21181;SDS011;10749;46.296;7.524;2023-06-04T01:33:22;4.82;;;3.30;;
21181;SDS011;10749;46.296;7.524;2023-06-04T01:35:48;3.58;;;3.05;;
21181;SDS011;10749;46.296;7.524;2023-06-04T01:38:14;5.63;;;3.03;;
21181;SDS011;10749;46.296;7.524;2023-06-04T01:40:40;5.00;;;2.90;;
21181;SDS011;10749;46.296;7.524;2023-06-04T01:43:06;4.15;;;2.85;;
21181;SDS011;10749;46.296;7.524;2023-06-04T01:45:31;3.55;;;2.85;;
21181;SDS011;10749;46.296;7.524;2023-06-04T01:47:56;4.22;;;3.05;;
21181;SDS011;10749;46.296;7.524;2023-06-04T01:50:22;2.78;;;2.50;;
21181;SDS011;10749;46.296;7.524;2023-06-04T01:52:48;3.47;;;2.85;;
21181;SDS011;10749;46.296;7.524;2023-06-04T01:55:14;3.95;;;3.00;;
21181;SDS011;10749;46.296;7.524;2023-06-04T01:57:40;3.40;;;2.67;;
21181;SDS011;10749;46.296;7.524;2023-06-04T02:00:10;5.00;;;3.00;;
21181;SDS011;10749;46.296;7.524;2023-06-04T02:02:37;3.60;;;2.80;;
21181;SDS011;10749;46.296;7.524;2023-06-04T02:05:06;3.88;;;3.20;;
21181;SDS011;10749;46.296;7.524;2023-06-04T02:07:33;4.30;;;3.05;;
21181;SDS011;10749;46.296;7.524;2023-06-04T02:09:59;4.40;;;3.05;;
21181;SDS011;10749;46.296;7.524;2023-06-04T02:12:25;4.68;;;3.35;;
21181;SDS011;10749;46.296;7.524;2023-06-04T02:14:50;6.13;;;3.03;;
21181;SDS011;10749;46.296;7.524;2023-06-04T02:17:15;3.90;;;3.00;;
21181;SDS011;10749;46.296;7.524;2023-06-04T02:19:41;3.90;;;3.10;;
21181;SDS011;10749;46.296;7.524;2023-06-04T02:22:14;5.22;;;3.00;;
21181;SDS011;10749;46.296;7.524;2023-06-04T02:24:41;3.47;;;3.13;;
21181;SDS011;10749;46.296;7.524;2023-06-04T02:27:07;4.80;;;2.78;;
21181;SDS011;10749;46.296;7.524;2023-06-04T02:29:33;4.38;;;2.97;;
21181;SDS011;10749;46.296;7.524;2023-06-04T02:31:58;4.22;;;2.78;;
21181;SDS011;10749;46.296;7.524;2023-06-04T02:34:23;4.93;;;3.50;;
21181;SDS011;10749;46.296;7.524;2023-06-04T02:36:49;4.15;;;3.30;;
21181;SDS011;10749;46.296;7.524;2023-06-04T02:39:15;3.58;;;3.28;;
21181;SDS011;10749;46.296;7.524;2023-06-04T02:41:41;4.97;;;3.30;;
21181;SDS011;10749;46.296;7.524;2023-06-04T02:44:06;5.05;;;3.47;;
21181;SDS011;10749;46.296;7.524;2023-06-04T02:46:32;3.92;;;3.20;;
21181;SDS011;10749;46.296;7.524;2023-06-04T02:48:57;6.72;;;3.85;;
21181;SDS011;10749;46.296;7.524;2023-06-04T02:51:22;3.90;;;3.03;;
21181;SDS011;10749;46.296;7.524;2023-06-04T02:53:47;6.55;;;3.03;;
21181;SDS011;10749;46.296;7.524;2023-06-04T02:56:13;4.57;;;3.17;;
21181;SDS011;10749;46.296;7.524;2023-06-04T02:58:48;3.25;;;2.67;;
21181;SDS011;10749;46.296;7.524;2023-06-04T03:01:18;3.90;;;3.20;;
21181;SDS011;10749;46.296;7.524;2023-06-04T03:03:44;3.50;;;2.90;;
21181;SDS011;10749;46.296;7.524;2023-06-04T03:06:10;5.15;;;3.30;;
21181;SDS011;10749;46.296;7.524;2023-06-04T03:08:37;7.15;;;3.17;;
21181;SDS011;10749;46.296;7.524;2023-06-04T03:11:02;3.83;;;2.90;;
21181;SDS011;10749;46.296;7.524;2023-06-04T03:13:27;3.53;;;2.92;;
21181;SDS011;10749;46.296;7.524;2023-06-04T03:15:53;5.47;;;3.50;;
21181;SDS011;10749;46.296;7.524;2023-06-04T03:18:20;3.45;;;2.80;;
21181;SDS011;10749;46.296;7.524;2023-06-04T03:20:45;4.40;;;2.95;;
21181;SDS011;10749;46.296;7.524;2023-06-04T03:23:10;4.25;;;3.15;;
21181;SDS011;10749;46.296;7.524;2023-06-04T03:25:36;4.97;;;3.30;;
21181;SDS011;10749;46.296;7.524;2023-06-04T03:28:01;5.25;;;3.42;;
21181;SDS011;10749;46.296;7.524;2023-06-04T03:30:26;4.72;;;3.30;;
21181;SDS011;10749;46.296;7.524;2023-06-04T03:32:52;5.72;;;3.85;;
21181;SDS011;10749;46.296;7.524;2023-06-04T03:35:17;5.47;;;3.88;;
21181;SDS011;10749;46.296;7.524;2023-06-04T03:37:42;6.07;;;3.65;;
21181;SDS011;10749;46.296;7.524;2023-06-04T03:40:08;4.43;;;3.55;;
21181;SDS011;10749;46.296;7.524;2023-06-04T03:42:33;4.43;;;3.22;;
21181;SDS011;10749;46.296;7.524;2023-06-04T03:44:58;4.68;;;3.53;;
21181;SDS011;10749;46.296;7.524;2023-06-04T03:47:24;4.88;;;3.65;;
21181;SDS011;10749;46.296;7.524;2023-06-04T03:49:49;4.15;;;3.45;;
21181;SDS011;10749;46.296;7.524;2023-06-04T03:52:15;5.68;;;3.85;;
21181;SDS011;10749;46.296;7.524;2023-06-04T03:54:41;5.30;;;3.85;;
21181;SDS011;10749;46.296;7.524;2023-06-04T03:57:06;4.72;;;3.47;;
21181;SDS011;10749;46.296;7.524;2023-06-04T03:59:31;4.35;;;3.72;;
21181;SDS011;10749;46.296;7.524;2023-06-04T04:01:57;5.30;;;3.60;;
21181;SDS011;10749;46.296;7.524;2023-06-04T04:04:22;5.00;;;3.17;;
21181;SDS011;10749;46.296;7.524;2023-06-04T04:06:48;3.58;;;3.13;;
21181;SDS011;10749;46.296;7.524;2023-06-04T04:09:13;5.88;;;3.47;;
21181;SDS011;10749;46.296;7.524;2023-06-04T04:11:38;3.92;;;3.30;;
21181;SDS011;10749;46.296;7.524;2023-06-04T04:14:04;4.05;;;3.35;;
21181;SDS011;10749;46.296;7.524;2023-06-04T04:16:29;4.55;;;3.38;;
21181;SDS011;10749;46.296;7.524;2023-06-04T04:18:54;3.85;;;3.15;;
21181;SDS011;10749;46.296;7.524;2023-06-04T04:21:20;3.83;;;3.30;;
21181;SDS011;10749;46.296;7.524;2023-06-04T04:23:46;4.20;;;2.90;;
21181;SDS011;10749;46.296;7.524;2023-06-04T04:26:11;5.38;;;3.60;;
21181;SDS011;10749;46.296;7.524;2023-06-04T04:28:41;4.68;;;3.22;;
21181;SDS011;10749;46.296;7.524;2023-06-04T04:31:06;4.50;;;3.83;;
21181;SDS011;10749;46.296;7.524;2023-06-04T04:33:33;4.03;;;2.90;;
21181;SDS011;10749;46.296;7.524;2023-06-04T04:36:04;3.85;;;3.25;;
21181;SDS011;10749;46.296;7.524;2023-06-04T04:38:29;6.15;;;3.60;;
21181;SDS011;10749;46.296;7.524;2023-06-04T04:40:58;4.20;;;3.10;;
21181;SDS011;10749;46.296;7.524;2023-06-04T04:43:31;5.50;;;3.20;;
21181;SDS011;10749;46.296;7.524;2023-06-04T04:45:58;7.07;;;3.42;;
21181;SDS011;10749;46.296;7.524;2023-06-04T04:48:23;4.22;;;3.47;;
21181;SDS011;10749;46.296;7.524;2023-06-04T04:50:50;4.20;;;3.55;;
21181;SDS011;10749;46.296;7.524;2023-06-04T04:53:15;5.18;;;3.63;;
21181;SDS011;10749;46.296;7.524;2023-06-04T04:55:40;4.43;;;3.85;;
21181;SDS011;10749;46.296;7.524;2023-06-04T04:58:05;4.82;;;3.40;;
21181;SDS011;10749;46.296;7.524;2023-06-04T05:00:32;4.72;;;3.20;;
21181;SDS011;10749;46.296;7.524;2023-06-04T05:02:57;5.60;;;3.70;;
21181;SDS011;10749;46.296;7.524;2023-06-04T05:05:22;4.28;;;3.60;;
21181;SDS011;10749;46.296;7.524;2023-06-04T05:07:47;5.95;;;3.78;;
21181;SDS011;10749;46.296;7.524;2023-06-04T05:10:13;3.90;;;3.30;;
21181;SDS011;10749;46.296;7.524;2023-06-04T05:12:38;7.32;;;3.47;;
21181;SDS011;10749;46.296;7.524;2023-06-04T05:15:03;5.45;;;3.40;;
21181;SDS011;10749;46.296;7.524;2023-06-04T05:17:29;3.80;;;3.40;;
21181;SDS011;10749;46.296;7.524;2023-06-04T05:19:55;3.97;;;3.58;;
21181;SDS011;10749;46.296;7.524;2023-06-04T05:22:30;4.47;;;3.70;;
21181;SDS011;10749;46.296;7.524;2023-06-04T05:24:57;5.10;;;4.00;;
21181;SDS011;10749;46.296;7.524;2023-06-04T05:27:24;4.82;;;3.58;;
21181;SDS011;10749;46.296;7.524;2023-06-04T05:29:49;5.88;;;4.10;;
21181;SDS011;10749;46.296;7.524;2023-06-04T05:32:15;4.55;;;3.70;;
21181;SDS011;10749;46.296;7.524;2023-06-04T05:34:41;5.18;;;3.67;;
21181;SDS011;10749;46.296;7.524;2023-06-04T05:37:07;5.60;;;3.50;;
21181;SDS011;10749;46.296;7.524;2023-06-04T05:39:33;4.75;;;3.95;;
21181;SDS011;10749;46.296;7.524;2023-06-04T05:41:59;5.50;;;3.67;;
21181;SDS011;10749;46.296;7.524;2023-06-04T05:44:25;7.13;;;4.03;;
21181;SDS011;10749;46.296;7.524;2023-06-04T05:46:50;3.90;;;3.50;;
21181;SDS011;10749;46.296;7.524;2023-06-04T05:49:15;5.15;;;3.83;;
21181;SDS011;10749;46.296;7.524;2023-06-04T05:51:41;4.63;;;3.70;;
21181;SDS011;10749;46.296;7.524;2023-06-04T05:54:07;4.75;;;3.13;;
21181;SDS011;10749;46.296;7.524;2023-06-04T05:56:32;3.40;;;3.10;;
21181;SDS011;10749;46.296;7.524;2023-06-04T05:58:57;4.20;;;3.47;;
21181;SDS011;10749;46.296;7.524;2023-06-04T06:01:22;4.82;;;3.97;;
21181;SDS011;10749;46.296;7.524;2023-06-04T06:03:48;5.13;;;3.60;;
21181;SDS011;10749;46.296;7.524;2023-06-04T06:06:13;4.30;;;3.50;;
21181;SDS011;10749;46.296;7.524;2023-06-04T06:08:39;4.32;;;3.80;;
21181;SDS011;10749;46.296;7.524;2023-06-04T06:11:04;4.93;;;3.75;;
21181;SDS011;10749;46.296;7.524;2023-06-04T06:13:30;5.47;;;3.60;;
21181;SDS011;10749;46.296;7.524;2023-06-04T06:15:56;5.13;;;3.90;;
21181;SDS011;10749;46.296;7.524;2023-06-04T06:18:22;8.18;;;3.90;;
21181;SDS011;10749;46.296;7.524;2023-06-04T06:20:47;5.97;;;3.95;;
21181;SDS011;10749;46.296;7.524;2023-06-04T06:23:12;4.70;;;3.90;;
21181;SDS011;10749;46.296;7.524;2023-06-04T06:25:39;4.65;;;3.90;;
21181;SDS011;10749;46.296;7.524;2023-06-04T06:28:11;3.97;;;3.60;;
21181;SDS011;10749;46.296;7.524;2023-06-04T06:30:36;5.80;;;3.97;;
21181;SDS011;10749;46.296;7.524;2023-06-04T06:33:02;5.47;;;4.10;;
21181;SDS011;10749;46.296;7.524;2023-06-04T06:35:27;5.03;;;3.63;;
21181;SDS011;10749;46.296;7.524;2023-06-04T06:37:52;5.60;;;3.90;;
21181;SDS011;10749;46.296;7.524;2023-06-04T06:40:19;5.95;;;4.00;;
21181;SDS011;10749;46.296;7.524;2023-06-04T06:42:47;5.63;;;3.35;;
21181;SDS011;10749;46.296;7.524;2023-06-04T06:45:14;4.75;;;3.70;;
21181;SDS011;10749;46.296;7.524;2023-06-04T06:47:40;4.10;;;3.35;;
21181;SDS011;10749;46.296;7.524;2023-06-04T06:50:05;4.82;;;3.38;;
21181;SDS011;10749;46.296;7.524;2023-06-04T06:52:31;5.32;;;3.40;;
21181;SDS011;10749;46.296;7.524;2023-06-04T06:54:56;3.95;;;3.55;;
21181;SDS011;10749;46.296;7.524;2023-06-04T06:57:22;4.40;;;3.35;;
21181;SDS011;10749;46.296;7.524;2023-06-04T06:59:47;4.20;;;3.50;;
21181;SDS011;10749;46.296;7.524;2023-06-04T07:02:13;4.20;;;3.80;;
21181;SDS011;10749;46.296;7.524;2023-06-04T07:04:38;4.57;;;3.70;;
21181;SDS011;10749;46.296;7.524;2023-06-04T07:07:03;4.30;;;3.10;;
21181;SDS011;10749;46.296;7.524;2023-06-04T07:09:29;3.28;;;2.95;;
21181;SDS011;10749;46.296;7.524;2023-06-04T07:11:54;4.70;;;3.35;;
21181;SDS011;10749;46.296;7.524;2023-06-04T07:14:20;3.40;;;2.90;;
21181;SDS011;10749;46.296;7.524;2023-06-04T07:16:46;3.75;;;3.35;;
21181;SDS011;10749;46.296;7.524;2023-06-04T07:19:11;5.30;;;2.92;;
21181;SDS011;10749;46.296;7.524;2023-06-04T07:21:36;5.57;;;3.40;;
21181;SDS011;10749;46.296;7.524;2023-06-04T07:24:01;5.40;;;3.28;;
21181;SDS011;10749;46.296;7.524;2023-06-04T07:26:27;4.43;;;3.08;;
21181;SDS011;10749;46.296;7.524;2023-06-04T07:28:55;3.60;;;3.22;;
21181;SDS011;10749;46.296;7.524;2023-06-04T07:31:21;4.55;;;3.47;;
21181;SDS011;10749;46.296;7.524;2023-06-04T07:33:47;6.88;;;3.00;;
21181;SDS011;10749;46.296;7.524;2023-06-04T07:36:12;3.33;;;2.90;;
21181;SDS011;10749;46.296;7.524;2023-06-04T07:38:38;4.05;;;3.45;;
21181;SDS011;10749;46.296;7.524;2023-06-04T07:41:04;4.20;;;3.55;;
21181;SDS011;10749;46.296;7.524;2023-06-04T07:43:29;5.03;;;3.65;;
21181;SDS011;10749;46.296;7.524;2023-06-04T07:45:55;3.58;;;3.25;;
21181;SDS011;10749;46.296;7.524;2023-06-04T07:48:20;4.68;;;2.85;;
21181;SDS011;10749;46.296;7.524;2023-06-04T07:50:45;4.28;;;3.58;;
21181;SDS011;10749;46.296;7.524;2023-06-04T07:53:10;4.93;;;3.70;;
21181;SDS011;10749;46.296;7.524;2023-06-04T07:55:36;3.97;;;3.53;;
21181;SDS011;10749;46.296;7.524;2023-06-04T07:58:01;4.55;;;3.88;;
21181;SDS011;10749;46.296;7.524;2023-06-04T08:00:26;4.00;;;3.28;;
21181;SDS011;10749;46.296;7.524;2023-06-04T08:02:52;4.40;;;3.17;;
21181;SDS011;10749;46.296;7.524;2023-06-04T08:05:17;4.57;;;3.38;;
21181;SDS011;10749;46.296;7.524;2023-06-04T08:07:42;4.68;;;3.20;;
21181;SDS011;10749;46.296;7.524;2023-06-04T08:10:08;4.45;;;3.53;;
21181;SDS011;10749;46.296;7.524;2023-06-04T08:12:34;3.95;;;3.42;;
21181;SDS011;10749;46.296;7.524;2023-06-04T08:14:59;5.18;;;3.15;;
21181;SDS011;10749;46.296;7.524;2023-06-04T08:17:25;4.15;;;3.20;;
21181;SDS011;10749;46.296;7.524;2023-06-04T08:19:50;4.38;;;3.40;;
21181;SDS011;10749;46.296;7.524;2023-06-04T08:22:15;3.75;;;3.33;;
21181;SDS011;10749;46.296;7.524;2023-06-04T08:24:41;3.92;;;3.50;;
21181;SDS011;10749;46.296;7.524;2023-06-04T08:27:06;3.42;;;3.10;;
21181;SDS011;10749;46.296;7.524;2023-06-04T08:29:33;4.80;;;3.20;;
21181;SDS011;10749;46.296;7.524;2023-06-04T08:32:00;3.13;;;2.83;;
21181;SDS011;10749;46.296;7.524;2023-06-04T08:34:25;3.38;;;2.95;;
21181;SDS011;10749;46.296;7.524;2023-06-04T08:36:51;3.53;;;3.00;;
21181;SDS011;10749;46.296;7.524;2023-06-04T08:39:16;4.55;;;3.15;;
21181;SDS011;10749;46.296;7.524;2023-06-04T08:41:43;4.50;;;2.80;;
21181;SDS011;10749;46.296;7.524;2023-06-04T08:44:09;3.17;;;2.58;;
21181;SDS011;10749;46.296;7.524;2023-06-04T08:46:38;3.58;;;2.60;;
21181;SDS011;10749;46.296;7.524;2023-06-04T08:49:05;3.97;;;2.75;;
21181;SDS011;10749;46.296;7.524;2023-06-04T08:51:33;3.35;;;2.95;;
21181;SDS011;10749;46.296;7.524;2023-06-04T08:54:02;4.68;;;3.10;;
21181;SDS011;10749;46.296;7.524;2023-06-04T08:56:28;3.17;;;2.88;;
21181;SDS011;10749;46.296;7.524;2023-06-04T08:58:58;3.60;;;3.30;;
21181;SDS011;10749;46.296;7.524;2023-06-04T09:01:26;3.20;;;2.90;;
21181;SDS011;10749;46.296;7.524;2023-06-04T09:03:51;3.25;;;2.83;;
21181;SDS011;10749;46.296;7.524;2023-06-04T09:06:17;2.65;;;2.45;;
21181;SDS011;10749;46.296;7.524;2023-06-04T09:08:43;3.20;;;2.90;;
21181;SDS011;10749;46.296;7.524;2023-06-04T09:11:09;4.30;;;3.20;;
21181;SDS011;10749;46.296;7.524;2023-06-04T09:13:38;5.07;;;3.30;;
21181;SDS011;10749;46.296;7.524;2023-06-04T09:16:05;3.88;;;2.83;;
21181;SDS011;10749;46.296;7.524;2023-06-04T09:18:31;5.20;;;2.75;;
21181;SDS011;10749;46.296;7.524;2023-06-04T09:21:03;2.42;;;2.20;;
21181;SDS011;10749;46.296;7.524;2023-06-04T09:23:31;3.42;;;2.35;;
21181;SDS011;10749;46.296;7.524;2023-06-04T09:26:06;2.45;;;2.25;;
21181;SDS011;10749;46.296;7.524;2023-06-04T09:28:33;2.85;;;2.33;;
21181;SDS011;10749;46.296;7.524;2023-06-04T09:30:59;2.58;;;2.10;;
21181;SDS011;10749;46.296;7.524;2023-06-04T09:33:24;3.08;;;2.35;;
21181;SDS011;10749;46.296;7.524;2023-06-04T09:35:57;4.25;;;2.30;;
21181;SDS011;10749;46.296;7.524;2023-06-04T09:38:23;3.10;;;2.65;;
21181;SDS011;10749;46.296;7.524;2023-06-04T09:40:58;3.03;;;2.30;;
21181;SDS011;10749;46.296;7.524;2023-06-04T09:43:25;2.40;;;2.20;;
21181;SDS011;10749;46.296;7.524;2023-06-04T09:45:51;2.00;;;1.75;;
21181;SDS011;10749;46.296;7.524;2023-06-04T09:48:20;2.65;;;2.30;;
21181;SDS011;10749;46.296;7.524;2023-06-04T09:50:50;2.75;;;2.10;;
21181;SDS011;10749;46.296;7.524;2023-06-04T09:53:25;2.38;;;2.10;;
21181;SDS011;10749;46.296;7.524;2023-06-04T09:55:56;2.55;;;2.25;;
21181;SDS011;10749;46.296;7.524;2023-06-04T09:58:24;2.30;;;2.10;;
21181;SDS011;10749;46.296;7.524;2023-06-04T10:00:50;2.55;;;2.22;;
21181;SDS011;10749;46.296;7.524;2023-06-04T10:03:18;2.20;;;2.00;;
21181;SDS011;10749;46.296;7.524;2023-06-04T10:05:48;2.50;;;2.28;;
21181;SDS011;10749;46.296;7.524;2023-06-04T10:08:14;4.10;;;2.80;;
21181;SDS011;10749;46.296;7.524;2023-06-04T10:10:42;2.95;;;2.33;;
21181;SDS011;10749;46.296;7.524;2023-06-04T10:13:10;2.90;;;2.60;;
21181;SDS011;10749;46.296;7.524;2023-06-04T10:15:41;4.78;;;3.53;;
21181;SDS011;10749;46.296;7.524;2023-06-04T10:18:08;2.35;;;2.10;;
21181;SDS011;10749;46.296;7.524;2023-06-04T10:20:35;3.22;;;2.20;;
21181;SDS011;10749;46.296;7.524;2023-06-04T10:23:01;2.72;;;2.15;;
21181;SDS011;10749;46.296;7.524;2023-06-04T10:25:29;3.70;;;2.90;;
21181;SDS011;10749;46.296;7.524;2023-06-04T10:27:55;2.75;;;2.50;;
21181;SDS011;10749;46.296;7.524;2023-06-04T10:30:21;3.25;;;2.55;;
21181;SDS011;10749;46.296;7.524;2023-06-04T10:32:46;3.08;;;2.33;;
21181;SDS011;10749;46.296;7.524;2023-06-04T10:35:12;2.72;;;2.25;;
21181;SDS011;10749;46.296;7.524;2023-06-04T10:37:39;2.72;;;2.50;;
21181;SDS011;10749;46.296;7.524;2023-06-04T10:40:05;2.50;;;2.20;;
21181;SDS011;10749;46.296;7.524;2023-06-04T10:42:37;2.90;;;2.47;;
21181;SDS011;10749;46.296;7.524;2023-06-04T10:45:07;4.20;;;2.80;;
21181;SDS011;10749;46.296;7.524;2023-06-04T10:47:34;2.95;;;2.55;;
21181;SDS011;10749;46.296;7.524;2023-06-04T10:50:12;3.92;;;2.60;;
21181;SDS011;10749;46.296;7.524;2023-06-04T10:52:39;4.07;;;2.58;;
21181;SDS011;10749;46.296;7.524;2023-06-04T10:55:16;2.78;;;2.47;;
21181;SDS011;10749;46.296;7.524;2023-06-04T10:57:50;4.13;;;2.33;;
21181;SDS011;10749;46.296;7.524;2023-06-04T11:00:38;3.75;;;2.65;;
21181;SDS011;10749;46.296;7.524;2023-06-04T11:03:06;2.83;;;2.53;;
21181;SDS011;10749;46.296;7.524;2023-06-04T11:05:42;4.10;;;2.92;;
21181;SDS011;10749;46.296;7.524;2023-06-04T11:08:09;3.10;;;2.80;;
21181;SDS011;10749;46.296;7.524;2023-06-04T11:10:37;3.10;;;2.53;;
21181;SDS011;10749;46.296;7.524;2023-06-04T11:13:04;2.90;;;2.47;;
21181;SDS011;10749;46.296;7.524;2023-06-04T11:15:43;3.25;;;2.50;;
21181;SDS011;10749;46.296;7.524;2023-06-04T11:18:13;3.15;;;2.75;;
21181;SDS011;10749;46.296;7.524;2023-06-04T11:20:40;3.40;;;2.63;;
21181;SDS011;10749;46.296;7.524;2023-06-04T11:23:05;3.13;;;2.80;;
21181;SDS011;10749;46.296;7.524;2023-06-04T11:25:31;6.28;;;2.92;;
21181;SDS011;10749;46.296;7.524;2023-06-04T11:27:57;3.50;;;3.13;;
21181;SDS011;10749;46.296;7.524;2023-06-04T11:30:25;3.83;;;2.72;;
21181;SDS011;10749;46.296;7.524;2023-06-04T11:32:50;3.15;;;2.80;;
21181;SDS011;10749;46.296;7.524;2023-06-04T11:35:31;2.28;;;2.08;;
21181;SDS011;10749;46.296;7.524;2023-06-04T11:38:05;4.57;;;2.72;;
21181;SDS011;10749;46.296;7.524;2023-06-04T11:40:30;3.00;;;2.70;;
21181;SDS011;10749;46.296;7.524;2023-06-04T11:42:55;5.13;;;2.92;;
21181;SDS011;10749;46.296;7.524;2023-06-04T11:45:21;3.22;;;2.70;;
21181;SDS011;10749;46.296;7.524;2023-06-04T11:47:48;3.63;;;2.60;;
21181;SDS011;10749;46.296;7.524;2023-06-04T11:50:25;3.65;;;2.50;;
21181;SDS011;10749;46.296;7.524;2023-06-04T11:52:52;3.35;;;2.80;;
21181;SDS011;10749;46.296;7.524;2023-06-04T11:55:18;3.28;;;2.75;;
21181;SDS011;10749;46.296;7.524;2023-06-04T11:57:47;3.25;;;2.78;;
21181;SDS011;10749;46.296;7.524;2023-06-04T12:00:14;5.47;;;2.70;;
21181;SDS011;10749;46.296;7.524;2023-06-04T12:02:51;3.45;;;2.78;;
21181;SDS011;10749;46.296;7.524;2023-06-04T12:05:18;4.22;;;2.58;;
21181;SDS011;10749;46.296;7.524;2023-06-04T12:07:44;3.45;;;2.58;;
21181;SDS011;10749;46.296;7.524;2023-06-04T12:10:10;3.08;;;2.78;;
21181;SDS011;10749;46.296;7.524;2023-06-04T12:12:39;4.18;;;2.33;;
21181;SDS011;10749;46.296;7.524;2023-06-04T12:15:06;3.63;;;2.40;;
21181;SDS011;10749;46.296;7.524;2023-06-04T12:17:32;4.03;;;2.20;;
21181;SDS011;10749;46.296;7.524;2023-06-04T12:19:57;2.40;;;2.20;;
21181;SDS011;10749;46.296;7.524;2023-06-04T12:22:24;3.20;;;2.90;;
21181;SDS011;10749;46.296;7.524;2023-06-04T12:24:51;3.70;;;2.55;;
21181;SDS011;10749;46.296;7.524;2023-06-04T12:27:21;3.13;;;2.60;;
21181;SDS011;10749;46.296;7.524;2023-06-04T12:29:54;4.15;;;2.97;;
21181;SDS011;10749;46.296;7.524;2023-06-04T12:32:27;2.83;;;2.42;;
21181;SDS011;10749;46.296;7.524;2023-06-04T12:34:53;4.38;;;2.70;;
21181;SDS011;10749;46.296;7.524;2023-06-04T12:37:19;3.70;;;2.42;;
21181;SDS011;10749;46.296;7.524;2023-06-04T12:39:45;3.78;;;2.40;;
21181;SDS011;10749;46.296;7.524;2023-06-04T12:42:11;2.80;;;2.60;;
21181;SDS011;10749;46.296;7.524;2023-06-04T12:44:37;2.50;;;2.30;;
21181;SDS011;10749;46.296;7.524;2023-06-04T12:47:03;2.90;;;2.60;;
21181;SDS011;10749;46.296;7.524;2023-06-04T12:49:29;3.47;;;2.60;;
21181;SDS011;10749;46.296;7.524;2023-06-04T12:51:54;3.85;;;2.65;;
21181;SDS011;10749;46.296;7.524;2023-06-04T12:54:19;3.03;;;2.55;;
21181;SDS011;10749;46.296;7.524;2023-06-04T12:56:45;3.17;;;2.58;;
21181;SDS011;10749;46.296;7.524;2023-06-04T12:59:10;3.53;;;2.45;;
21181;SDS011;10749;46.296;7.524;2023-06-04T13:01:36;2.42;;;2.22;;
21181;SDS011;10749;46.296;7.524;2023-06-04T13:04:02;4.85;;;2.80;;
21181;SDS011;10749;46.296;7.524;2023-06-04T13:06:28;6.05;;;2.47;;
21181;SDS011;10749;46.296;7.524;2023-06-04T13:08:53;3.28;;;2.80;;
21181;SDS011;10749;46.296;7.524;2023-06-04T13:11:19;4.00;;;2.70;;
21181;SDS011;10749;46.296;7.524;2023-06-04T13:13:44;4.88;;;2.67;;
21181;SDS011;10749;46.296;7.524;2023-06-04T13:16:09;3.75;;;2.55;;
21181;SDS011;10749;46.296;7.524;2023-06-04T13:18:35;3.15;;;2.30;;
21181;SDS011;10749;46.296;7.524;2023-06-04T13:21:00;4.20;;;2.30;;
21181;SDS011;10749;46.296;7.524;2023-06-04T13:23:26;3.95;;;2.20;;
21181;SDS011;10749;46.296;7.524;2023-06-04T13:25:51;4.38;;;2.75;;
21181;SDS011;10749;46.296;7.524;2023-06-04T13:28:16;4.32;;;2.65;;
21181;SDS011;10749;46.296;7.524;2023-06-04T13:30:42;3.80;;;2.40;;
21181;SDS011;10749;46.296;7.524;2023-06-04T13:33:08;3.75;;;2.60;;
21181;SDS011;10749;46.296;7.524;2023-06-04T13:35:34;2.70;;;2.50;;
21181;SDS011;10749;46.296;7.524;2023-06-04T13:37:59;2.42;;;2.20;;
21181;SDS011;10749;46.296;7.524;2023-06-04T13:40:25;2.90;;;2.30;;
21181;SDS011;10749;46.296;7.524;2023-06-04T13:42:50;4.28;;;2.30;;
21181;SDS011;10749;46.296;7.524;2023-06-04T13:45:15;3.05;;;2.45;;
21181;SDS011;10749;46.296;7.524;2023-06-04T13:47:42;2.97;;;2.25;;
21181;SDS011;10749;46.296;7.524;2023-06-04T13:50:07;2.65;;;2.25;;
21181;SDS011;10749;46.296;7.524;2023-06-04T13:52:33;2.75;;;2.30;;
21181;SDS011;10749;46.296;7.524;2023-06-04T13:54:58;3.88;;;2.40;;
21181;SDS011;10749;46.296;7.524;2023-06-04T13:57:24;2.90;;;2.20;;
21181;SDS011;10749;46.296;7.524;2023-06-04T13:59:49;4.05;;;2.60;;
21181;SDS011;10749;46.296;7.524;2023-06-04T14:02:15;3.40;;;2.03;;
21181;SDS011;10749;46.296;7.524;2023-06-04T14:04:40;2.95;;;2.47;;
21181;SDS011;10749;46.296;7.524;2023-06-04T14:07:06;2.33;;;2.00;;
21181;SDS011;10749;46.296;7.524;2023-06-04T14:09:31;3.58;;;2.30;;
21181;SDS011;10749;46.296;7.524;2023-06-04T14:11:56;3.70;;;2.10;;
21181;SDS011;10749;46.296;7.524;2023-06-04T14:14:23;3.50;;;2.38;;
21181;SDS011;10749;46.296;7.524;2023-06-04T14:16:48;2.42;;;2.20;;
21181;SDS011;10749;46.296;7.524;2023-06-04T14:19:14;4.75;;;2.40;;
21181;SDS011;10749;46.296;7.524;2023-06-04T14:21:43;4.00;;;2.00;;
21181;SDS011;10749;46.296;7.524;2023-06-04T14:24:09;4.18;;;2.45;;
21181;SDS011;10749;46.296;7.524;2023-06-04T14:26:35;5.25;;;2.20;;
21181;SDS011;10749;46.296;7.524;2023-06-04T14:29:00;8.18;;;2.38;;
21181;SDS011;10749;46.296;7.524;2023-06-04T14:31:25;2.58;;;2.10;;
21181;SDS011;10749;46.296;7.524;2023-06-04T14:33:51;4.00;;;2.47;;
21181;SDS011;10749;46.296;7.524;2023-06-04T14:36:16;2.85;;;2.33;;
21181;SDS011;10749;46.296;7.524;2023-06-04T14:38:41;3.25;;;2.00;;
21181;SDS011;10749;46.296;7.524;2023-06-04T14:41:07;2.97;;;2.30;;
21181;SDS011;10749;46.296;7.524;2023-06-04T14:43:32;3.75;;;2.30;;